createdAt,value
2019-03-21T00:00:34.017Z,90.10
2019-03-21T00:03:01.994Z,90.40
2019-03-21T00:05:32.452Z,90.20
2019-03-21T00:08:00.440Z,90.20
2019-03-21T00:11:25.074Z,90.20
2019-03-21T00:13:54.996Z,90.10
2019-03-21T00:16:22.959Z,90.00
2019-03-21T00:18:50.927Z,90.00
2019-03-21T00:21:18.981Z,90.10
2019-03-21T00:23:46.916Z,90.10
2019-03-21T00:26:14.868Z,90.10
2019-03-21T00:28:42.840Z,90.00
2019-03-21T00:31:10.829Z,90.10
2019-03-21T00:33:38.801Z,90.00
2019-03-21T00:36:06.765Z,90.20
2019-03-21T00:38:34.741Z,90.10
2019-03-21T00:41:02.717Z,90.10
2019-03-21T00:43:30.807Z,90.30
2019-03-21T00:45:58.760Z,90.00
2019-03-21T00:48:26.732Z,90.00
2019-03-21T00:50:54.718Z,90.10
2019-03-21T00:53:22.683Z,89.80
2019-03-21T00:55:50.879Z,89.30
2019-03-21T00:58:18.845Z,89.80
2019-03-21T01:00:49.211Z,89.70
2019-03-21T01:03:17.181Z,89.70
2019-03-21T01:05:45.175Z,90.00
2019-03-21T01:08:13.236Z,90.00
2019-03-21T01:10:41.449Z,90.00
2019-03-21T01:13:09.329Z,90.00
2019-03-21T01:15:37.293Z,90.00
2019-03-21T01:18:05.292Z,90.00
2019-03-21T01:20:33.253Z,90.00
2019-03-21T01:23:01.205Z,90.00
2019-03-21T01:25:32.640Z,89.80
2019-03-21T01:28:00.608Z,90.00
2019-03-21T01:30:28.638Z,90.20
2019-03-21T01:32:56.670Z,90.20
2019-03-21T01:35:24.744Z,90.10
2019-03-21T01:37:52.729Z,90.10
2019-03-21T01:40:22.171Z,90.10
2019-03-21T01:42:50.313Z,90.00
2019-03-21T01:45:19.961Z,89.60
2019-03-21T01:47:48.001Z,89.20
2019-03-21T01:50:16.744Z,89.30
2019-03-21T01:52:44.709Z,89.40
2019-03-21T01:55:13.161Z,90.10
2019-03-21T01:57:41.176Z,90.20
2019-03-21T02:00:12.925Z,90.10
2019-03-21T02:02:41.061Z,90.10
2019-03-21T02:05:09.472Z,90.20
2019-03-21T02:07:37.472Z,90.20
2019-03-21T02:10:07.430Z,90.10
2019-03-21T02:12:35.533Z,90.30
2019-03-21T02:15:03.633Z,90.30
2019-03-21T02:17:31.593Z,90.30
2019-03-21T02:19:59.691Z,90.50
2019-03-21T02:22:27.643Z,90.50
2019-03-21T02:24:55.699Z,90.60
2019-03-21T02:27:23.695Z,90.50
2019-03-21T02:29:51.656Z,90.40
2019-03-21T02:32:19.710Z,90.40
2019-03-21T02:34:47.884Z,90.40
2019-03-21T02:37:15.861Z,90.70
2019-03-21T02:39:58.297Z,90.30
2019-03-21T02:42:13.638Z,90.50
2019-03-21T02:44:41.735Z,90.60
2019-03-21T02:47:09.678Z,91.20
2019-03-21T02:49:37.669Z,90.90
2019-03-21T02:52:05.637Z,91.10
2019-03-21T02:54:33.579Z,91.10
2019-03-21T02:57:01.673Z,91.10
2019-03-21T02:59:29.566Z,91.10
2019-03-21T03:01:57.558Z,90.90
2019-03-21T03:04:25.563Z,90.90
2019-03-21T03:06:53.497Z,90.80
2019-03-21T03:09:21.366Z,91.00
2019-03-21T03:11:49.484Z,90.90
2019-03-21T03:14:17.601Z,90.90
2019-03-21T03:16:45.539Z,90.90
2019-03-21T03:19:13.497Z,90.90
2019-03-21T03:21:41.493Z,90.80
2019-03-21T03:24:09.471Z,90.40
2019-03-21T03:26:37.413Z,90.80
2019-03-21T03:29:05.407Z,90.90
2019-03-21T03:31:33.373Z,90.90
2019-03-21T03:34:01.352Z,91.30
2019-03-21T03:36:29.341Z,90.80
2019-03-21T03:38:57.317Z,91.00
2019-03-21T03:41:25.294Z,90.80
2019-03-21T03:43:53.298Z,90.70
2019-03-21T03:46:21.269Z,90.70
2019-03-21T03:48:49.247Z,90.60
2019-03-21T03:51:17.275Z,90.60
2019-03-21T03:53:45.337Z,90.80
2019-03-21T03:56:13.432Z,90.70
2019-03-21T03:58:42.676Z,90.60
2019-03-21T04:01:10.676Z,90.80
2019-03-21T04:03:38.736Z,91.10
2019-03-21T04:06:06.718Z,91.10
2019-03-21T04:08:34.889Z,91.40
2019-03-21T04:11:03.064Z,91.50
2019-03-21T04:13:31.161Z,91.40
2019-03-21T04:15:59.313Z,91.30
2019-03-21T04:18:27.296Z,91.20
2019-03-21T04:20:55.940Z,91.10
2019-03-21T04:23:23.914Z,91.00
2019-03-21T04:25:54.803Z,91.00
2019-03-21T04:28:23.389Z,91.20
2019-03-21T04:30:51.373Z,91.30
2019-03-21T04:33:22.509Z,91.30
2019-03-21T04:35:49.260Z,91.50
2019-03-21T04:38:17.228Z,91.30
2019-03-21T04:40:45.185Z,91.60
2019-03-21T04:43:13.156Z,91.60
2019-03-21T04:45:41.168Z,91.50
2019-03-21T04:48:09.120Z,91.70
2019-03-21T04:50:37.133Z,91.90
2019-03-21T04:53:05.100Z,91.80
2019-03-21T04:55:33.074Z,91.60
2019-03-21T04:58:01.055Z,91.50
2019-03-21T05:00:30.443Z,91.60
2019-03-21T05:02:59.275Z,91.60
2019-03-21T05:05:27.290Z,91.60
2019-03-21T05:07:55.272Z,91.60
2019-03-21T05:10:23.336Z,91.60
2019-03-21T05:12:51.406Z,91.50
2019-03-21T05:15:25.174Z,91.70
2019-03-21T05:17:54.673Z,91.40
2019-03-21T05:20:24.304Z,91.30
2019-03-21T05:22:52.273Z,91.50
2019-03-21T05:25:20.229Z,91.80
2019-03-21T05:27:48.314Z,91.90
2019-03-21T05:30:28.792Z,91.70
2019-03-21T05:32:56.765Z,91.60
2019-03-21T05:35:24.732Z,91.70
2019-03-21T05:37:52.705Z,91.60
2019-03-21T05:40:20.723Z,91.70
2019-03-21T05:42:55.916Z,91.90
2019-03-21T05:45:23.896Z,92.00
2019-03-21T05:47:51.856Z,92.20
2019-03-21T05:50:19.940Z,92.20
2019-03-21T05:52:47.922Z,92.30
2019-03-21T05:55:15.978Z,92.30
2019-03-21T05:57:44.081Z,92.40
2019-03-21T06:00:16.033Z,92.40
2019-03-21T06:02:44.107Z,92.40
2019-03-21T06:05:12.094Z,92.30
2019-03-21T06:07:52.656Z,92.40
2019-03-21T06:10:20.641Z,92.30
2019-03-21T06:12:48.632Z,92.30
2019-03-21T06:15:23.003Z,92.30
2019-03-21T06:18:07.151Z,92.30
2019-03-21T06:20:51.729Z,92.40
2019-03-21T06:23:57.260Z,92.40
2019-03-21T06:26:39.994Z,92.50
2019-03-21T06:29:07.958Z,92.70
2019-03-21T06:31:35.922Z,92.80
2019-03-21T06:34:04.101Z,92.70
2019-03-21T06:36:32.000Z,92.70
2019-03-21T06:38:59.963Z,92.90
2019-03-21T06:41:27.949Z,92.90
2019-03-21T06:43:56.016Z,93.10
2019-03-21T06:46:24.104Z,93.10
2019-03-21T06:48:52.133Z,93.40
2019-03-21T06:51:20.096Z,93.20
2019-03-21T06:53:48.150Z,93.10
2019-03-21T06:56:16.148Z,93.20
2019-03-21T06:58:44.239Z,93.40
2019-03-21T07:01:12.200Z,93.30
2019-03-21T07:03:40.292Z,93.20
2019-03-21T07:06:08.278Z,93.00
2019-03-21T07:08:36.275Z,93.10
2019-03-21T07:11:04.533Z,93.10
2019-03-21T07:13:32.606Z,93.20
2019-03-21T07:16:00.665Z,92.90
2019-03-21T07:18:28.690Z,93.10
2019-03-21T07:20:56.757Z,92.90
2019-03-21T07:23:24.828Z,92.70
2019-03-21T07:25:52.914Z,92.60
2019-03-21T07:28:20.966Z,92.40
2019-03-21T07:30:48.951Z,92.30
2019-03-21T07:33:16.913Z,92.10
2019-03-21T07:35:44.993Z,92.00
2019-03-21T07:38:12.985Z,91.90
2019-03-21T07:40:41.030Z,91.70
2019-03-21T07:43:09.018Z,91.60
2019-03-21T07:45:36.966Z,91.50
2019-03-21T07:48:05.377Z,91.30
2019-03-21T07:50:33.470Z,91.30
2019-03-21T07:53:01.423Z,91.10
2019-03-21T07:55:29.380Z,91.10
2019-03-21T07:57:59.484Z,90.80
2019-03-21T08:00:27.566Z,90.80
2019-03-21T08:02:55.555Z,90.80
2019-03-21T08:05:23.735Z,90.70
2019-03-21T08:07:51.699Z,90.50
2019-03-21T08:10:19.701Z,90.80
2019-03-21T08:12:47.716Z,90.40
2019-03-21T08:15:15.981Z,90.50
2019-03-21T08:17:44.064Z,90.20
2019-03-21T08:20:12.729Z,90.30
2019-03-21T08:22:40.801Z,90.00
2019-03-21T08:25:09.292Z,89.20
2019-03-21T08:27:37.476Z,89.10
2019-03-21T08:30:06.231Z,88.50
2019-03-21T08:32:34.343Z,88.70
2019-03-21T08:35:02.311Z,87.80
2019-03-21T08:37:30.390Z,87.80
2019-03-21T08:39:58.395Z,87.40
2019-03-21T08:42:26.355Z,87.90
2019-03-21T08:44:54.327Z,88.40
2019-03-21T08:47:22.302Z,88.70
2019-03-21T08:49:50.286Z,87.80
2019-03-21T08:52:18.444Z,89.10
2019-03-21T08:54:46.398Z,88.20
2019-03-21T08:57:14.370Z,87.50
2019-03-21T08:59:42.352Z,87.00
2019-03-21T09:02:10.310Z,87.00
2019-03-21T09:04:38.291Z,86.90
2019-03-21T09:07:06.352Z,86.50
2019-03-21T09:09:34.340Z,87.50
2019-03-21T09:12:02.425Z,86.70
2019-03-21T09:14:30.384Z,86.90
2019-03-21T09:16:58.346Z,86.50
2019-03-21T09:19:26.334Z,85.80
2019-03-21T09:21:54.895Z,86.10
2019-03-21T09:24:22.866Z,85.00
2019-03-21T09:26:51.036Z,86.10
2019-03-21T09:29:19.061Z,85.50
2019-03-21T09:31:47.354Z,85.50
2019-03-21T09:34:16.039Z,84.60
2019-03-21T09:36:43.995Z,85.00
2019-03-21T09:39:11.864Z,84.50
2019-03-21T09:41:39.859Z,84.60
2019-03-21T09:44:07.813Z,85.40
2019-03-21T09:46:35.908Z,84.60
2019-03-21T09:49:03.884Z,84.70
2019-03-21T09:51:31.836Z,85.10
2019-03-21T09:54:09.340Z,84.40
2019-03-21T09:56:29.586Z,83.70
2019-03-21T09:58:57.552Z,83.30
2019-03-21T10:01:25.529Z,83.20
2019-03-21T10:03:53.512Z,84.40
2019-03-21T10:06:21.472Z,82.80
2019-03-21T10:08:49.512Z,83.70
2019-03-21T10:11:17.704Z,83.60
2019-03-21T10:13:45.781Z,83.10
2019-03-21T10:16:13.821Z,81.70
2019-03-21T10:18:41.891Z,80.80
2019-03-21T10:21:09.877Z,82.20
2019-03-21T10:23:37.868Z,82.40
2019-03-21T10:26:05.837Z,81.70
2019-03-21T10:28:33.894Z,81.90
2019-03-21T10:31:02.026Z,81.00
2019-03-21T10:33:29.996Z,80.80
2019-03-21T10:35:57.973Z,81.30
2019-03-21T10:38:25.978Z,80.50
2019-03-21T10:40:54.045Z,81.30
2019-03-21T10:43:22.038Z,81.70
2019-03-21T10:45:50.052Z,79.80
2019-03-21T10:48:18.166Z,80.60
2019-03-21T10:50:46.250Z,81.30
2019-03-21T10:53:14.220Z,80.90
2019-03-21T10:55:42.204Z,82.10
2019-03-21T10:58:10.186Z,81.10
2019-03-21T11:00:38.418Z,80.80
2019-03-21T11:03:06.712Z,81.70
2019-03-21T11:05:35.190Z,80.90
2019-03-21T11:08:03.613Z,81.50
2019-03-21T11:10:31.592Z,81.60
2019-03-21T11:12:59.658Z,82.60
2019-03-21T11:15:27.750Z,82.50
2019-03-21T11:17:55.822Z,81.10
2019-03-21T11:20:29.279Z,80.20
2019-03-21T11:22:57.233Z,80.40
2019-03-21T11:25:25.401Z,80.70
2019-03-21T11:27:53.726Z,79.80
2019-03-21T11:30:28.998Z,80.50
2019-03-21T11:32:56.971Z,80.70
2019-03-21T11:35:24.928Z,81.30
2019-03-21T11:37:53.018Z,80.60
2019-03-21T11:40:21.559Z,80.80
2019-03-21T11:42:49.558Z,80.50
2019-03-21T11:45:17.632Z,80.90
2019-03-21T11:47:45.665Z,80.50
2019-03-21T11:50:13.756Z,81.00
2019-03-21T11:52:41.707Z,80.90
2019-03-21T11:55:09.981Z,80.30
2019-03-21T11:57:38.110Z,80.00
2019-03-21T12:00:06.304Z,79.80
2019-03-21T12:02:34.268Z,80.80
2019-03-21T12:05:02.384Z,79.80
2019-03-21T12:07:30.344Z,80.60
2019-03-21T12:09:58.308Z,79.60
2019-03-21T12:12:26.408Z,80.00
2019-03-21T12:14:54.466Z,79.50
2019-03-21T12:17:22.748Z,80.20
2019-03-21T12:19:50.750Z,80.00
2019-03-21T12:22:29.416Z,80.20
2019-03-21T12:24:48.716Z,80.70
2019-03-21T12:27:16.694Z,79.50
2019-03-21T12:29:44.674Z,79.20
2019-03-21T12:32:12.692Z,79.60
2019-03-21T12:34:40.870Z,79.60
2019-03-21T12:37:08.928Z,80.00
2019-03-21T12:39:36.934Z,80.70
2019-03-21T12:42:04.801Z,78.50
2019-03-21T12:44:32.884Z,78.10
2019-03-21T12:47:00.925Z,77.90
2019-03-21T12:49:28.887Z,78.30
2019-03-21T12:51:56.937Z,78.90
2019-03-21T12:54:24.959Z,78.50
2019-03-21T12:56:53.179Z,79.00
2019-03-21T12:59:21.226Z,78.50
2019-03-21T13:01:49.275Z,79.30
2019-03-21T13:04:17.250Z,79.00
2019-03-21T13:06:45.240Z,79.10
2019-03-21T13:09:13.212Z,77.40
2019-03-21T13:11:41.185Z,77.00
2019-03-21T13:14:09.237Z,77.70
2019-03-21T13:16:37.228Z,77.00
2019-03-21T13:19:05.055Z,76.20
2019-03-21T13:21:33.029Z,76.30
2019-03-21T13:24:00.994Z,76.60
2019-03-21T13:26:29.091Z,77.20
2019-03-21T13:28:57.094Z,76.80
2019-03-21T13:31:25.160Z,76.70
2019-03-21T13:33:53.171Z,75.70
2019-03-21T13:36:21.178Z,76.20
2019-03-21T13:38:49.192Z,76.30
2019-03-21T13:41:17.224Z,77.00
2019-03-21T13:43:45.209Z,75.60
2019-03-21T13:46:13.316Z,75.90
2019-03-21T13:48:41.317Z,75.50
2019-03-21T13:51:09.283Z,75.50
2019-03-21T13:53:37.244Z,75.00
2019-03-21T13:56:05.411Z,75.00
2019-03-21T13:58:33.392Z,76.40
2019-03-21T14:01:01.384Z,75.30
2019-03-21T14:03:29.536Z,74.20
2019-03-21T14:05:57.567Z,74.20
2019-03-21T14:08:25.598Z,74.00
2019-03-21T14:10:53.575Z,73.00
2019-03-21T14:13:21.574Z,73.40
2019-03-21T14:15:49.573Z,72.80
2019-03-21T14:18:17.668Z,72.80
2019-03-21T14:20:45.743Z,73.70
2019-03-21T14:23:17.367Z,74.20
2019-03-21T14:25:43.502Z,74.00
2019-03-21T14:28:11.469Z,73.00
2019-03-21T14:30:39.475Z,73.20
2019-03-21T14:33:08.402Z,73.70
2019-03-21T14:35:36.521Z,73.20
2019-03-21T14:38:04.701Z,74.20
2019-03-21T14:40:32.666Z,74.60
2019-03-21T14:43:00.634Z,72.70
2019-03-21T14:45:28.631Z,73.50
2019-03-21T14:47:56.602Z,72.90
2019-03-21T14:50:24.566Z,73.10
2019-03-21T14:52:52.549Z,72.10
2019-03-21T14:55:20.616Z,71.70
2019-03-21T14:57:48.655Z,72.10
2019-03-21T15:00:17.279Z,72.20
2019-03-21T15:02:45.248Z,72.30
2019-03-21T15:05:14.230Z,73.00
2019-03-21T15:07:42.234Z,73.30
2019-03-21T15:10:10.726Z,72.70
2019-03-21T15:12:38.689Z,72.10
2019-03-21T15:15:08.062Z,73.30
2019-03-21T15:17:36.052Z,73.10
2019-03-21T15:20:05.774Z,73.40
2019-03-21T15:22:33.768Z,72.20
2019-03-21T15:25:01.742Z,71.70
2019-03-21T15:27:29.710Z,72.30
2019-03-21T15:29:57.729Z,72.00
2019-03-21T15:32:25.881Z,72.30
2019-03-21T15:34:53.882Z,73.40
2019-03-21T15:37:21.900Z,73.00
2019-03-21T15:39:49.866Z,72.70
2019-03-21T15:42:17.932Z,71.90
2019-03-21T15:44:45.908Z,71.90
2019-03-21T15:47:13.978Z,71.20
2019-03-21T15:49:41.965Z,71.40
2019-03-21T15:52:09.943Z,70.20
2019-03-21T15:54:37.900Z,70.70
2019-03-21T15:57:05.944Z,72.00
2019-03-21T15:59:33.912Z,72.80
2019-03-21T16:02:01.986Z,72.50
2019-03-21T16:04:30.056Z,72.00
2019-03-21T16:06:58.027Z,72.00
2019-03-21T16:09:25.993Z,72.20
2019-03-21T16:11:54.067Z,72.80
2019-03-21T16:14:22.072Z,73.00
2019-03-21T16:16:50.141Z,71.80
2019-03-21T16:19:18.233Z,73.30
2019-03-21T16:21:46.313Z,72.90
2019-03-21T16:24:14.296Z,73.10
2019-03-21T16:26:42.277Z,73.60
2019-03-21T16:29:10.514Z,74.00
2019-03-21T16:31:38.588Z,73.80
2019-03-21T16:34:06.558Z,73.30
2019-03-21T16:36:34.534Z,73.20
2019-03-21T16:39:03.266Z,72.80
2019-03-21T16:41:31.210Z,73.40
2019-03-21T16:43:59.200Z,74.30
2019-03-21T16:46:27.196Z,73.40
2019-03-21T16:48:55.198Z,73.20
2019-03-21T16:51:23.193Z,73.10
2019-03-21T16:53:51.145Z,73.60
2019-03-21T16:56:19.227Z,74.60
2019-03-21T16:58:47.305Z,74.40
2019-03-21T17:01:15.297Z,73.90
2019-03-21T17:03:43.353Z,73.20
2019-03-21T17:06:11.325Z,74.20
2019-03-21T17:08:39.358Z,74.10
2019-03-21T17:11:07.406Z,73.40
2019-03-21T17:13:35.364Z,74.10
2019-03-21T17:16:05.604Z,74.30
2019-03-21T17:18:33.361Z,74.80
2019-03-21T17:21:01.379Z,75.20
2019-03-21T17:23:29.475Z,75.40
2019-03-21T17:25:57.427Z,75.70
2019-03-21T17:28:25.348Z,75.00
2019-03-21T17:30:53.279Z,75.10
2019-03-21T17:33:21.269Z,75.10
2019-03-21T17:35:49.306Z,75.70
2019-03-21T17:38:17.281Z,76.00
2019-03-21T17:40:45.347Z,76.40
2019-03-21T17:43:13.518Z,77.10
2019-03-21T17:45:41.509Z,77.30
2019-03-21T17:48:09.496Z,78.50
2019-03-21T17:50:37.492Z,77.80
2019-03-21T17:53:05.539Z,78.50
2019-03-21T17:55:33.514Z,78.70
2019-03-21T17:58:01.484Z,78.50
2019-03-21T18:00:30.208Z,79.40
2019-03-21T18:02:58.190Z,78.80
2019-03-21T18:05:26.156Z,78.60
2019-03-21T18:07:54.146Z,79.20
2019-03-21T18:10:27.320Z,79.40
2019-03-21T18:12:55.564Z,80.80
2019-03-21T18:15:23.557Z,80.80
2019-03-21T18:17:51.535Z,81.70
2019-03-21T18:20:19.691Z,81.80
2019-03-21T18:22:47.643Z,82.60
2019-03-21T18:25:15.688Z,83.10
2019-03-21T18:27:45.264Z,83.10
2019-03-21T18:30:13.737Z,83.70
2019-03-21T18:32:41.707Z,84.00
2019-03-21T18:35:10.516Z,84.10
2019-03-21T18:37:38.500Z,83.90
2019-03-21T18:40:07.349Z,84.00
2019-03-21T18:42:35.312Z,84.20
2019-03-21T18:45:03.812Z,84.20
2019-03-21T18:47:31.896Z,84.30
2019-03-21T18:50:00.012Z,84.50
2019-03-21T18:52:28.104Z,84.70
2019-03-21T18:55:05.691Z,85.20
2019-03-21T18:57:26.085Z,85.20
2019-03-21T18:59:54.362Z,85.50
2019-03-21T19:02:22.453Z,85.60
2019-03-21T19:04:50.528Z,85.90
2019-03-21T19:07:18.494Z,86.20
2019-03-21T19:09:46.530Z,86.60
2019-03-21T19:12:14.689Z,86.60
2019-03-21T19:14:42.565Z,86.80
2019-03-21T19:17:10.533Z,86.80
2019-03-21T19:19:38.522Z,87.10
2019-03-21T19:22:06.731Z,87.30
2019-03-21T19:24:34.745Z,87.50
2019-03-21T19:27:02.716Z,87.40
2019-03-21T19:29:30.686Z,87.70
2019-03-21T19:31:58.776Z,88.00
2019-03-21T19:34:26.857Z,88.20
2019-03-21T19:36:55.077Z,88.30
2019-03-21T19:39:23.068Z,89.20
2019-03-21T19:41:51.097Z,88.40
2019-03-21T19:44:19.267Z,88.10
2019-03-21T19:46:47.275Z,88.70
2019-03-21T19:49:15.231Z,89.00
2019-03-21T19:51:43.214Z,89.10
2019-03-21T19:54:11.158Z,89.40
2019-03-21T19:56:38.970Z,89.50
2019-03-21T19:59:06.845Z,89.70
2019-03-21T20:01:34.864Z,89.70
2019-03-21T20:04:02.857Z,90.00
2019-03-21T20:06:30.827Z,90.00
2019-03-21T20:08:58.802Z,90.00
2019-03-21T20:11:26.788Z,90.10
2019-03-21T20:13:54.873Z,90.60
2019-03-21T20:16:22.886Z,90.30
2019-03-21T20:18:50.979Z,90.30
2019-03-21T20:21:19.000Z,90.30
2019-03-21T20:23:46.998Z,90.20
2019-03-21T20:26:14.988Z,90.50
2019-03-21T20:28:42.992Z,90.60
2019-03-21T20:31:10.981Z,90.60
2019-03-21T20:33:38.940Z,90.50
2019-03-21T20:36:07.052Z,90.50
2019-03-21T20:38:35.136Z,90.50
2019-03-21T20:41:03.126Z,90.60
2019-03-21T20:43:31.112Z,90.60
2019-03-21T20:45:58.981Z,90.80
2019-03-21T20:48:29.638Z,90.70
2019-03-21T20:50:57.956Z,90.70
2019-03-21T20:53:25.960Z,90.70
2019-03-21T20:55:54.096Z,90.70
2019-03-21T20:58:22.229Z,90.50
2019-03-21T21:00:50.664Z,90.70
2019-03-21T21:03:18.684Z,90.80
2019-03-21T21:05:46.676Z,90.90
2019-03-21T21:08:14.692Z,90.80
2019-03-21T21:10:42.754Z,90.80
2019-03-21T21:13:10.725Z,90.90
2019-03-21T21:15:38.852Z,90.90
2019-03-21T21:18:07.885Z,90.90
2019-03-21T21:20:35.865Z,90.80
2019-03-21T21:23:04.456Z,90.80
2019-03-21T21:25:32.621Z,90.90
2019-03-21T21:28:01.132Z,91.00
2019-03-21T21:30:29.112Z,91.10
2019-03-21T21:32:57.189Z,91.10
2019-03-21T21:35:25.767Z,91.20
2019-03-21T21:37:53.737Z,91.20
2019-03-21T21:40:21.852Z,91.30
2019-03-21T21:42:49.955Z,91.30
2019-03-21T21:45:18.248Z,91.40
2019-03-21T21:47:46.293Z,91.40
2019-03-21T21:50:14.382Z,91.40
2019-03-21T21:52:42.572Z,91.40
2019-03-21T21:55:10.829Z,91.40
2019-03-21T21:57:38.783Z,91.50
2019-03-21T22:00:08.484Z,91.60
2019-03-21T22:02:36.443Z,91.70
2019-03-21T22:05:05.225Z,91.70
2019-03-21T22:07:33.212Z,91.80
2019-03-21T22:10:01.168Z,91.90
2019-03-21T22:12:29.176Z,91.90
2019-03-21T22:14:57.141Z,91.80
2019-03-21T22:17:25.160Z,91.80
2019-03-21T22:19:53.252Z,91.80
2019-03-21T22:22:21.211Z,92.00
2019-03-21T22:24:49.337Z,92.00
2019-03-21T22:27:17.400Z,92.00
2019-03-21T22:29:45.476Z,92.00
2019-03-21T22:32:13.530Z,92.00
2019-03-21T22:34:41.535Z,92.10
2019-03-21T22:37:09.548Z,92.10
2019-03-21T22:39:37.516Z,92.10
2019-03-21T22:42:05.335Z,92.20
2019-03-21T22:44:33.238Z,92.30
2019-03-21T22:47:01.202Z,92.70
2019-03-21T22:49:29.214Z,92.30
2019-03-21T22:51:57.184Z,92.40
2019-03-21T22:54:25.553Z,92.30
2019-03-21T22:56:53.538Z,92.40
2019-03-21T22:59:21.496Z,92.80
2019-03-21T23:01:49.673Z,92.40
2019-03-21T23:04:17.808Z,92.50
2019-03-21T23:06:45.833Z,92.50
2019-03-21T23:09:13.908Z,92.50
2019-03-21T23:11:41.872Z,92.60
2019-03-21T23:14:09.839Z,92.60
2019-03-21T23:16:38.013Z,92.70
2019-03-21T23:19:06.101Z,92.80
2019-03-21T23:21:34.066Z,92.30
2019-03-21T23:24:02.133Z,92.50
2019-03-21T23:26:30.220Z,92.60
2019-03-21T23:28:58.216Z,92.80
2019-03-21T23:31:26.163Z,92.70
2019-03-21T23:33:54.173Z,92.20
2019-03-21T23:36:22.149Z,92.20
2019-03-21T23:38:50.134Z,92.30
2019-03-21T23:41:18.366Z,92.30
2019-03-21T23:43:46.352Z,91.70
2019-03-21T23:46:14.336Z,91.80
2019-03-21T23:48:42.430Z,91.80
2019-03-21T23:51:10.401Z,92.10
2019-03-21T23:53:38.360Z,93.20
2019-03-21T23:56:06.316Z,92.40
2019-03-21T23:58:34.287Z,92.10
